createdAt,value
2023-02-02T00:00:59.129Z,41.06
2023-02-02T00:03:17.752Z,41.29
2023-02-02T00:05:30.705Z,41.64
2023-02-02T00:07:43.494Z,41.79
2023-02-02T00:09:56.960Z,41.83
2023-02-02T00:12:09.926Z,42.08
2023-02-02T00:14:22.676Z,42.33
2023-02-02T00:16:49.567Z,42.16
2023-02-02T00:19:04.476Z,42.46
2023-02-02T00:21:17.302Z,42.35
2023-02-02T00:23:29.891Z,42.18
2023-02-02T00:25:43.220Z,42.27
2023-02-02T00:27:56.062Z,42.77
2023-02-02T00:30:09.615Z,42.73
2023-02-02T00:32:24.088Z,42.79
2023-02-02T00:34:37.316Z,42.83
2023-02-02T00:36:52.001Z,43.03
2023-02-02T00:39:04.836Z,43.13
2023-02-02T00:41:17.959Z,42.92
2023-02-02T00:43:32.078Z,42.98
2023-02-02T00:45:45.633Z,42.96
2023-02-02T00:47:58.780Z,43.41
2023-02-02T00:50:13.848Z,43.46
2023-02-02T00:52:26.695Z,43.32
2023-02-02T00:54:39.180Z,43.39
2023-02-02T00:56:51.706Z,43.37
2023-02-02T00:59:04.721Z,43.81
2023-02-02T01:01:24.658Z,43.58
2023-02-02T01:03:38.110Z,43.99
2023-02-02T01:05:52.670Z,43.89
2023-02-02T01:08:05.791Z,44.14
2023-02-02T01:10:22.963Z,44.01
2023-02-02T01:12:36.214Z,43.85
2023-02-02T01:14:48.805Z,43.94
2023-02-02T01:17:01.353Z,43.75
2023-02-02T01:19:15.640Z,43.95
2023-02-02T01:21:28.606Z,44.06
2023-02-02T01:23:43.558Z,44.26
2023-02-02T01:26:02.350Z,44.11
2023-02-02T01:28:15.239Z,44.53
2023-02-02T01:30:28.576Z,44.71
2023-02-02T01:32:41.625Z,44.81
2023-02-02T01:34:54.862Z,44.70
2023-02-02T01:37:09.213Z,44.70
2023-02-02T01:39:23.316Z,44.96
2023-02-02T01:41:36.384Z,44.99
2023-02-02T01:44:03.861Z,44.99
2023-02-02T01:46:18.236Z,45.32
2023-02-02T01:48:36.211Z,45.54
2023-02-02T01:50:51.238Z,45.35
2023-02-02T01:53:05.509Z,45.67
2023-02-02T01:55:22.361Z,45.85
2023-02-02T01:57:39.522Z,45.85
2023-02-02T01:59:57.857Z,46.04
2023-02-02T02:02:11.437Z,46.25
2023-02-02T02:04:25.690Z,46.40
2023-02-02T02:06:39.737Z,46.49
2023-02-02T02:08:57.583Z,46.66
2023-02-02T02:11:11.172Z,46.83
2023-02-02T02:13:46.428Z,46.83
2023-02-02T02:16:23.066Z,46.88
2023-02-02T02:18:47.858Z,46.81
2023-02-02T02:21:43.576Z,46.93
2023-02-02T02:24:43.896Z,47.02
2023-02-02T02:27:42.490Z,46.71
2023-02-02T02:30:25.476Z,46.77
2023-02-02T02:32:44.847Z,46.95
2023-02-02T02:35:04.074Z,46.70
2023-02-02T02:37:27.476Z,46.80
2023-02-02T02:39:48.962Z,46.64
2023-02-02T02:42:07.473Z,46.61
2023-02-02T02:44:23.734Z,47.16
2023-02-02T02:46:37.524Z,47.03
2023-02-02T02:48:53.754Z,47.12
2023-02-02T02:51:26.560Z,47.39
2023-02-02T02:53:40.624Z,47.51
2023-02-02T02:56:05.049Z,47.36
2023-02-02T02:58:25.767Z,47.63
2023-02-02T03:01:12.456Z,47.56
2023-02-02T03:03:40.285Z,47.57
2023-02-02T03:05:57.574Z,47.54
2023-02-02T03:08:19.768Z,47.49
2023-02-02T03:10:35.144Z,47.58
2023-02-02T03:12:58.100Z,47.63
2023-02-02T03:15:14.316Z,47.91
2023-02-02T03:17:26.788Z,47.98
2023-02-02T03:19:39.234Z,47.82
2023-02-02T03:21:52.215Z,48.04
2023-02-02T03:24:05.495Z,48.21
2023-02-02T03:26:19.926Z,48.50
2023-02-02T03:28:34.189Z,48.56
2023-02-02T03:30:49.308Z,48.82
2023-02-02T03:33:02.471Z,48.95
2023-02-02T03:35:16.338Z,49.05
2023-02-02T03:37:29.202Z,49.05
2023-02-02T03:39:42.772Z,49.06
2023-02-02T03:41:56.325Z,49.19
2023-02-02T03:44:09.589Z,49.46
2023-02-02T03:46:23.303Z,49.40
2023-02-02T03:48:38.059Z,49.67
2023-02-02T03:50:51.425Z,49.51
2023-02-02T03:53:04.449Z,49.47
2023-02-02T03:55:17.628Z,49.91
2023-02-02T03:57:30.758Z,49.63
2023-02-02T03:59:43.292Z,50.17
2023-02-02T04:01:57.153Z,49.82
2023-02-02T04:04:09.867Z,50.02
2023-02-02T04:06:23.042Z,50.28
2023-02-02T04:08:35.792Z,50.05
2023-02-02T04:10:49.741Z,50.13
2023-02-02T04:13:02.741Z,50.25
2023-02-02T04:15:16.400Z,50.44
2023-02-02T04:17:29.317Z,50.49
2023-02-02T04:19:42.310Z,50.43
2023-02-02T04:21:56.843Z,50.30
2023-02-02T04:24:10.340Z,50.69
2023-02-02T04:26:23.042Z,51.14
2023-02-02T04:28:35.762Z,51.28
2023-02-02T04:30:48.905Z,51.31
2023-02-02T04:33:02.702Z,51.54
2023-02-02T04:35:15.600Z,51.71
2023-02-02T04:37:28.229Z,51.96
2023-02-02T04:39:41.381Z,51.89
2023-02-02T04:41:54.733Z,52.10
2023-02-02T04:44:11.665Z,52.25
2023-02-02T04:46:25.047Z,52.66
2023-02-02T04:48:37.983Z,52.53
2023-02-02T04:50:52.254Z,52.28
2023-02-02T04:53:04.714Z,52.41
2023-02-02T04:55:17.609Z,52.52
2023-02-02T04:57:30.490Z,52.49
2023-02-02T04:59:43.194Z,52.38
2023-02-02T05:01:55.725Z,52.23
2023-02-02T05:04:08.814Z,52.45
2023-02-02T05:06:22.586Z,52.34
2023-02-02T05:08:36.083Z,52.65
2023-02-02T05:10:48.913Z,52.61
2023-02-02T05:13:03.403Z,52.72
2023-02-02T05:15:17.099Z,52.45
2023-02-02T05:17:30.653Z,52.41
2023-02-02T05:19:43.208Z,52.41
2023-02-02T05:21:56.920Z,52.16
2023-02-02T05:24:09.995Z,52.14
2023-02-02T05:26:25.607Z,52.09
2023-02-02T05:28:38.075Z,52.44
2023-02-02T05:30:50.898Z,52.43
2023-02-02T05:33:03.664Z,52.41
2023-02-02T05:35:16.867Z,52.67
2023-02-02T05:37:29.381Z,52.91
2023-02-02T05:39:42.030Z,53.10
2023-02-02T05:41:54.574Z,53.14
2023-02-02T05:44:07.535Z,53.36
2023-02-02T05:46:20.136Z,53.47
2023-02-02T05:48:33.160Z,53.62
2023-02-02T05:50:46.421Z,53.72
2023-02-02T05:52:59.618Z,53.93
2023-02-02T05:55:13.859Z,53.91
2023-02-02T05:57:26.652Z,53.99
2023-02-02T05:59:39.446Z,54.01
2023-02-02T06:01:52.530Z,54.11
2023-02-02T06:04:05.562Z,54.20
2023-02-02T06:06:18.526Z,54.37
2023-02-02T06:08:31.243Z,54.40
2023-02-02T06:10:45.059Z,54.51
2023-02-02T06:12:57.673Z,54.62
2023-02-02T06:15:13.145Z,54.70
2023-02-02T06:17:26.159Z,54.89
2023-02-02T06:19:38.885Z,54.89
2023-02-02T06:21:51.951Z,55.08
2023-02-02T06:24:05.530Z,55.34
2023-02-02T06:26:18.986Z,55.29
2023-02-02T06:28:31.952Z,55.43
2023-02-02T06:30:44.675Z,55.64
2023-02-02T06:32:57.414Z,55.84
2023-02-02T06:35:11.062Z,55.98
2023-02-02T06:37:23.815Z,56.18
2023-02-02T06:39:36.707Z,56.23
2023-02-02T06:41:49.768Z,56.17
2023-02-02T06:44:02.662Z,56.24
2023-02-02T06:46:15.674Z,56.39
2023-02-02T06:48:28.538Z,56.35
2023-02-02T06:50:41.638Z,56.26
2023-02-02T06:53:01.223Z,56.09
2023-02-02T06:55:14.227Z,55.90
2023-02-02T06:57:27.250Z,55.67
2023-02-02T06:59:42.018Z,56.04
2023-02-02T07:01:57.228Z,56.25
2023-02-02T07:04:10.142Z,56.11
2023-02-02T07:06:24.407Z,55.99
2023-02-02T07:08:37.614Z,56.08
2023-02-02T07:11:14.414Z,55.78
2023-02-02T07:13:24.528Z,55.70
2023-02-02T07:15:37.964Z,55.61
2023-02-02T07:17:51.258Z,55.58
2023-02-02T07:20:03.928Z,55.77
2023-02-02T07:22:17.163Z,55.71
2023-02-02T07:24:30.527Z,55.81
2023-02-02T07:26:43.736Z,55.75
2023-02-02T07:28:57.857Z,55.88
2023-02-02T07:31:19.682Z,55.99
2023-02-02T07:33:32.645Z,56.09
2023-02-02T07:35:45.648Z,56.29
2023-02-02T07:37:59.988Z,56.18
2023-02-02T07:40:15.283Z,56.18
2023-02-02T07:42:28.363Z,56.08
2023-02-02T07:44:41.394Z,56.21
2023-02-02T07:46:54.379Z,56.22
2023-02-02T07:49:07.692Z,56.16
2023-02-02T07:51:21.061Z,56.30
2023-02-02T07:53:34.221Z,56.31
2023-02-02T07:55:46.924Z,56.48
2023-02-02T07:58:00.100Z,56.57
2023-02-02T08:00:14.349Z,56.62
2023-02-02T08:02:26.847Z,56.70
2023-02-02T08:04:39.568Z,56.79
2023-02-02T08:06:52.360Z,56.85
2023-02-02T08:09:06.144Z,56.94
2023-02-02T08:11:20.873Z,56.93
2023-02-02T08:13:33.541Z,57.03
2023-02-02T08:15:46.374Z,56.96
2023-02-02T08:18:00.287Z,57.09
2023-02-02T08:20:16.419Z,57.11
2023-02-02T08:22:29.174Z,57.07
2023-02-02T08:24:43.970Z,57.11
2023-02-02T08:26:56.807Z,57.20
2023-02-02T08:29:12.373Z,57.30
2023-02-02T08:31:28.045Z,57.35
2023-02-02T08:33:41.256Z,57.37
2023-02-02T08:35:54.245Z,57.66
2023-02-02T08:38:08.564Z,57.59
2023-02-02T08:40:21.911Z,57.75
2023-02-02T08:42:34.925Z,57.77
2023-02-02T08:45:59.819Z,57.67
2023-02-02T08:47:17.906Z,57.75
2023-02-02T08:49:32.711Z,57.83
2023-02-02T08:51:45.971Z,58.10
2023-02-02T08:53:58.933Z,58.16
2023-02-02T08:56:13.691Z,58.14
2023-02-02T08:58:27.029Z,58.43
2023-02-02T09:00:40.107Z,58.55
2023-02-02T09:02:55.726Z,58.52
2023-02-02T09:05:10.043Z,58.55
2023-02-02T09:07:22.420Z,58.69
2023-02-02T09:09:35.766Z,58.82
2023-02-02T09:11:49.045Z,58.70
2023-02-02T09:14:03.253Z,58.87
2023-02-02T09:16:17.927Z,58.80
2023-02-02T09:18:30.660Z,58.91
2023-02-02T09:20:44.643Z,58.90
2023-02-02T09:23:00.740Z,59.01
2023-02-02T09:25:13.951Z,59.06
2023-02-02T09:27:27.087Z,59.10
2023-02-02T09:29:39.745Z,59.19
2023-02-02T09:31:52.401Z,59.29
2023-02-02T09:34:09.545Z,59.34
2023-02-02T09:36:23.130Z,59.20
2023-02-02T09:38:36.180Z,59.32
2023-02-02T09:40:49.191Z,59.46
2023-02-02T09:43:24.949Z,59.47
2023-02-02T09:45:45.499Z,59.47
2023-02-02T09:48:06.173Z,59.74
2023-02-02T09:50:25.546Z,59.61
2023-02-02T09:52:43.056Z,59.86
2023-02-02T09:55:01.147Z,59.88
2023-02-02T09:57:21.038Z,59.90
2023-02-02T09:59:38.123Z,59.85
2023-02-02T10:01:54.926Z,59.91
2023-02-02T10:04:17.798Z,60.03
2023-02-02T10:06:39.213Z,60.23
2023-02-02T10:08:57.122Z,60.11
2023-02-02T10:11:24.174Z,60.12
2023-02-02T10:13:44.625Z,60.11
2023-02-02T10:16:04.360Z,60.26
2023-02-02T10:18:25.755Z,60.33
2023-02-02T10:20:46.815Z,60.31
2023-02-02T10:23:07.171Z,60.45
2023-02-02T10:25:22.649Z,60.44
2023-02-02T10:27:41.472Z,60.52
2023-02-02T10:30:01.312Z,60.52
2023-02-02T10:32:25.648Z,60.60
2023-02-02T10:34:45.168Z,60.75
2023-02-02T10:37:31.741Z,60.71
2023-02-02T10:40:00.923Z,60.58
2023-02-02T10:42:26.218Z,60.66
2023-02-02T10:44:45.538Z,60.61
2023-02-02T10:47:01.151Z,60.57
2023-02-02T10:49:27.526Z,60.60
2023-02-02T10:51:42.201Z,60.62
2023-02-02T10:53:57.727Z,60.70
2023-02-02T10:56:15.270Z,60.76
2023-02-02T10:58:33.729Z,60.85
2023-02-02T11:00:53.592Z,60.94
2023-02-02T11:03:08.344Z,61.09
2023-02-02T11:05:42.806Z,61.17
2023-02-02T11:07:57.076Z,61.08
2023-02-02T11:10:10.707Z,61.15
2023-02-02T11:12:29.482Z,61.21
2023-02-02T11:14:48.309Z,61.37
2023-02-02T11:17:09.764Z,61.24
2023-02-02T11:19:35.953Z,61.43
2023-02-02T11:21:52.396Z,61.31
2023-02-02T11:24:08.080Z,61.25
2023-02-02T11:26:21.771Z,61.19
2023-02-02T11:28:39.016Z,61.15
2023-02-02T11:30:54.267Z,61.21
2023-02-02T11:33:32.457Z,61.18
2023-02-02T11:35:58.965Z,61.17
2023-02-02T11:38:20.398Z,61.21
2023-02-02T11:40:41.843Z,61.22
2023-02-02T11:42:55.472Z,61.42
2023-02-02T11:45:08.600Z,61.44
2023-02-02T11:47:29.418Z,61.56
2023-02-02T11:49:48.216Z,61.62
2023-02-02T11:52:08.740Z,61.75
2023-02-02T11:54:28.130Z,61.55
2023-02-02T11:56:42.989Z,61.77
2023-02-02T11:58:56.748Z,61.87
2023-02-02T12:01:09.783Z,61.76
2023-02-02T12:03:35.944Z,61.92
2023-02-02T12:05:51.112Z,61.90
2023-02-02T12:08:04.155Z,62.13
2023-02-02T12:10:34.493Z,61.97
2023-02-02T12:12:48.385Z,62.21
2023-02-02T12:15:08.669Z,62.50
2023-02-02T12:17:36.387Z,62.62
2023-02-02T12:20:06.068Z,62.88
2023-02-02T12:22:29.367Z,62.83
2023-02-02T12:24:52.657Z,63.06
2023-02-02T12:27:19.135Z,62.99
2023-02-02T12:29:44.246Z,62.96
2023-02-02T12:32:22.354Z,63.03
2023-02-02T12:34:51.166Z,63.27
2023-02-02T12:37:09.929Z,63.75
2023-02-02T12:39:35.442Z,63.61
2023-02-02T12:42:10.816Z,63.64
2023-02-02T12:44:32.571Z,63.93
2023-02-02T12:46:57.852Z,64.16
2023-02-02T12:49:24.654Z,64.17
2023-02-02T12:51:56.526Z,64.03
2023-02-02T12:54:34.717Z,63.88
2023-02-02T12:57:05.717Z,63.81
2023-02-02T12:59:32.219Z,64.11
2023-02-02T13:01:58.144Z,64.23
2023-02-02T13:04:42.226Z,64.34
2023-02-02T13:07:40.890Z,64.41
2023-02-02T13:10:04.397Z,64.88
2023-02-02T13:12:21.977Z,64.66
2023-02-02T13:14:40.311Z,64.60
2023-02-02T13:16:56.871Z,64.49
2023-02-02T13:19:15.785Z,64.34
2023-02-02T13:21:30.596Z,64.30
2023-02-02T13:23:48.284Z,64.17
2023-02-02T13:26:07.212Z,64.17
2023-02-02T13:28:35.421Z,64.13
2023-02-02T13:30:53.303Z,64.11
2023-02-02T13:33:10.710Z,64.05
2023-02-02T13:35:26.877Z,64.16
2023-02-02T13:37:46.213Z,64.23
2023-02-02T13:40:02.397Z,64.25
2023-02-02T13:42:29.529Z,64.07
2023-02-02T13:44:46.727Z,63.92
2023-02-02T13:47:06.088Z,63.73
2023-02-02T13:49:23.498Z,63.63
2023-02-02T13:52:09.678Z,63.56
2023-02-02T13:55:15.542Z,63.42
2023-02-02T13:57:46.701Z,63.65
2023-02-02T14:00:15.203Z,63.76
2023-02-02T14:02:36.179Z,63.80
2023-02-02T14:04:56.114Z,63.90
2023-02-02T14:07:11.738Z,64.09
2023-02-02T14:09:28.244Z,64.17
2023-02-02T14:11:43.980Z,64.21
2023-02-02T14:14:28.929Z,64.02
2023-02-02T14:16:57.318Z,63.97
2023-02-02T14:19:17.148Z,63.95
2023-02-02T14:22:07.721Z,64.09
2023-02-02T14:24:47.044Z,63.91
2023-02-02T14:27:01.434Z,64.11
2023-02-02T14:30:01.014Z,64.03
2023-02-02T14:32:35.870Z,63.96
2023-02-02T14:34:50.437Z,64.02
2023-02-02T14:37:23.499Z,64.21
2023-02-02T14:39:41.591Z,64.11
2023-02-02T14:42:30.572Z,63.96
2023-02-02T14:45:03.404Z,63.73
2023-02-02T14:48:00.637Z,63.57
2023-02-02T14:50:21.335Z,63.39
2023-02-02T14:52:34.543Z,63.42
2023-02-02T14:54:52.310Z,63.22
2023-02-02T14:57:09.388Z,63.04
2023-02-02T14:59:26.397Z,63.13
2023-02-02T15:01:40.903Z,62.90
2023-02-02T15:04:00.305Z,62.76
2023-02-02T15:06:30.435Z,62.75
2023-02-02T15:08:43.223Z,62.97
2023-02-02T15:11:33.237Z,63.07
2023-02-02T15:13:51.828Z,63.10
2023-02-02T15:16:15.894Z,63.24
2023-02-02T15:18:35.431Z,63.09
2023-02-02T15:20:52.479Z,63.19
2023-02-02T15:23:11.688Z,63.25
2023-02-02T15:25:28.963Z,63.41
2023-02-02T15:27:56.068Z,63.25
2023-02-02T15:30:17.148Z,63.19
2023-02-02T15:32:33.299Z,63.01
2023-02-02T15:34:50.060Z,62.90
2023-02-02T15:37:07.034Z,62.56
2023-02-02T15:39:30.226Z,62.63
2023-02-02T15:41:47.310Z,62.30
2023-02-02T15:44:00.759Z,62.19
2023-02-02T15:46:25.247Z,62.01
2023-02-02T15:48:38.907Z,61.94
2023-02-02T15:50:55.818Z,61.67
2023-02-02T15:53:09.427Z,61.63
2023-02-02T15:55:32.729Z,61.63
2023-02-02T15:57:48.687Z,61.52
2023-02-02T16:00:03.204Z,61.45
2023-02-02T16:02:33.439Z,61.36
2023-02-02T16:04:47.745Z,61.36
2023-02-02T16:07:03.298Z,61.18
2023-02-02T16:09:27.167Z,61.10
2023-02-02T16:11:44.666Z,61.21
2023-02-02T16:14:05.176Z,61.23
2023-02-02T16:16:31.128Z,60.94
2023-02-02T16:18:44.074Z,60.35
2023-02-02T16:20:59.161Z,60.05
2023-02-02T16:23:20.370Z,60.03
2023-02-02T16:25:35.866Z,59.54
2023-02-02T16:27:50.704Z,59.42
2023-02-02T16:30:09.234Z,59.32
2023-02-02T16:32:36.795Z,58.93
2023-02-02T16:34:52.567Z,58.71
2023-02-02T16:37:21.394Z,58.53
2023-02-02T16:39:34.932Z,58.35
2023-02-02T16:41:50.253Z,58.07
2023-02-02T16:44:40.894Z,57.37
2023-02-02T16:46:54.346Z,57.21
2023-02-02T16:49:07.788Z,56.70
2023-02-02T16:51:33.824Z,56.84
2023-02-02T16:53:48.391Z,56.49
2023-02-02T16:56:02.025Z,56.65
2023-02-02T16:58:22.605Z,56.60
2023-02-02T17:00:38.049Z,56.33
2023-02-02T17:02:57.494Z,56.09
2023-02-02T17:05:22.516Z,55.43
2023-02-02T17:07:37.466Z,55.42
2023-02-02T17:09:51.373Z,54.61
2023-02-02T17:12:14.332Z,53.70
2023-02-02T17:14:36.274Z,53.22
2023-02-02T17:16:49.066Z,52.69
2023-02-02T17:19:02.424Z,52.40
2023-02-02T17:21:20.969Z,52.27
2023-02-02T17:23:37.340Z,52.24
2023-02-02T17:25:50.920Z,52.01
2023-02-02T17:28:07.303Z,51.78
2023-02-02T17:30:23.276Z,51.73
2023-02-02T17:32:36.275Z,51.60
2023-02-02T17:34:49.025Z,51.67
2023-02-02T17:37:02.434Z,51.20
2023-02-02T17:39:15.481Z,51.25
2023-02-02T17:41:28.737Z,51.17
2023-02-02T17:43:43.672Z,51.16
2023-02-02T17:45:56.894Z,51.14
2023-02-02T17:48:12.948Z,51.10
2023-02-02T17:50:26.059Z,50.91
2023-02-02T17:52:40.084Z,50.92
2023-02-02T17:54:53.623Z,51.04
2023-02-02T17:57:16.663Z,51.19
2023-02-02T17:59:30.390Z,51.19
2023-02-02T18:01:45.392Z,51.33
2023-02-02T18:03:58.333Z,51.38
2023-02-02T18:06:13.334Z,51.32
2023-02-02T18:08:26.425Z,51.41
2023-02-02T18:10:40.204Z,51.37
2023-02-02T18:12:53.564Z,51.38
2023-02-02T18:15:06.853Z,51.35
2023-02-02T18:17:19.597Z,51.27
2023-02-02T18:19:32.443Z,51.20
2023-02-02T18:21:45.969Z,51.16
2023-02-02T18:24:00.754Z,51.54
2023-02-02T18:26:19.806Z,51.56
2023-02-02T18:28:32.763Z,51.61
2023-02-02T18:30:46.935Z,51.55
2023-02-02T18:33:00.415Z,51.69
2023-02-02T18:35:15.145Z,51.64
2023-02-02T18:37:29.108Z,51.34
2023-02-02T18:39:42.130Z,50.91
2023-02-02T18:41:55.867Z,50.37
2023-02-02T18:44:09.161Z,49.88
2023-02-02T18:46:22.497Z,49.27
2023-02-02T18:48:35.270Z,47.72
2023-02-02T18:50:48.317Z,47.22
2023-02-02T18:53:01.149Z,47.47
2023-02-02T18:55:14.760Z,46.91
2023-02-02T18:57:27.567Z,46.31
2023-02-02T18:59:41.897Z,46.12
2023-02-02T19:01:55.013Z,45.67
2023-02-02T19:04:08.766Z,45.21
2023-02-02T19:06:38.652Z,45.15
2023-02-02T19:08:51.734Z,44.99
2023-02-02T19:11:09.358Z,44.76
2023-02-02T19:13:23.326Z,44.03
2023-02-02T19:15:40.410Z,43.92
2023-02-02T19:17:55.890Z,43.75
2023-02-02T19:20:22.380Z,43.74
2023-02-02T19:22:35.899Z,43.30
2023-02-02T19:24:49.141Z,43.49
2023-02-02T19:27:02.410Z,43.45
2023-02-02T19:29:22.214Z,42.89
2023-02-02T19:31:35.010Z,43.05
2023-02-02T19:33:49.368Z,42.75
2023-02-02T19:36:02.461Z,42.49
2023-02-02T19:38:20.385Z,42.02
2023-02-02T19:40:33.568Z,41.58
2023-02-02T19:42:49.906Z,41.41
2023-02-02T19:45:02.892Z,41.65
2023-02-02T19:47:26.743Z,41.73
2023-02-02T19:49:40.300Z,41.83
2023-02-02T19:51:54.845Z,41.56
2023-02-02T19:54:08.395Z,41.22
2023-02-02T19:56:35.133Z,40.39
2023-02-02T19:58:47.657Z,40.71
2023-02-02T20:01:01.423Z,40.18
2023-02-02T20:03:18.900Z,39.96
2023-02-02T20:05:33.108Z,38.94
2023-02-02T20:07:46.074Z,38.71
2023-02-02T20:10:03.217Z,38.92
2023-02-02T20:12:28.616Z,38.55
2023-02-02T20:14:41.809Z,38.47
2023-02-02T20:16:55.684Z,39.19
2023-02-02T20:19:08.826Z,39.66
2023-02-02T20:21:33.000Z,39.63
2023-02-02T20:23:49.313Z,39.92
2023-02-02T20:26:05.013Z,39.71
2023-02-02T20:28:35.222Z,39.93
2023-02-02T20:30:48.109Z,39.85
2023-02-02T20:33:04.737Z,39.07
2023-02-02T20:35:30.004Z,38.09
2023-02-02T20:37:49.365Z,38.46
2023-02-02T20:40:04.245Z,38.28
2023-02-02T20:42:17.572Z,39.16
2023-02-02T20:44:31.290Z,39.31
2023-02-02T20:46:44.100Z,38.25
2023-02-02T20:48:56.791Z,38.04
2023-02-02T20:51:10.040Z,37.54
2023-02-02T20:53:24.255Z,37.67
2023-02-02T20:55:37.423Z,37.68
2023-02-02T20:57:50.337Z,38.28
2023-02-02T21:00:03.303Z,38.49
2023-02-02T21:02:21.573Z,38.26
2023-02-02T21:04:34.519Z,37.82
2023-02-02T21:06:47.449Z,38.31
2023-02-02T21:09:00.211Z,38.60
2023-02-02T21:11:13.339Z,38.61
2023-02-02T21:13:26.067Z,38.68
2023-02-02T21:15:38.789Z,38.45
2023-02-02T21:17:51.643Z,38.83
2023-02-02T21:20:04.322Z,39.33
2023-02-02T21:22:18.013Z,39.54
2023-02-02T21:24:31.235Z,39.52
2023-02-02T21:26:44.127Z,38.95
2023-02-02T21:28:56.829Z,38.37
2023-02-02T21:31:10.141Z,39.05
2023-02-02T21:33:23.218Z,38.80
2023-02-02T21:35:36.156Z,38.63
2023-02-02T21:37:52.594Z,39.07
2023-02-02T21:40:10.695Z,38.59
2023-02-02T21:42:24.551Z,38.53
2023-02-02T21:44:38.964Z,38.82
2023-02-02T21:46:53.325Z,38.71
2023-02-02T21:49:06.925Z,38.78
2023-02-02T21:51:29.013Z,39.10
2023-02-02T21:53:42.005Z,39.30
2023-02-02T21:55:57.925Z,39.06
2023-02-02T21:58:21.532Z,38.83
2023-02-02T22:00:36.622Z,39.16
2023-02-02T22:02:55.181Z,38.92
2023-02-02T22:05:14.728Z,39.25
2023-02-02T22:07:28.908Z,39.79
2023-02-02T22:09:46.778Z,39.84
2023-02-02T22:12:03.031Z,40.04
2023-02-02T22:14:25.553Z,40.09
2023-02-02T22:16:46.869Z,39.98
2023-02-02T22:18:59.672Z,40.12
2023-02-02T22:21:15.514Z,40.14
2023-02-02T22:23:30.575Z,40.06
2023-02-02T22:25:44.156Z,39.85
2023-02-02T22:27:59.490Z,39.92
2023-02-02T22:30:24.223Z,40.02
2023-02-02T22:32:37.086Z,40.13
2023-02-02T22:34:49.924Z,40.03
2023-02-02T22:37:02.724Z,39.93
2023-02-02T22:39:16.121Z,40.14
2023-02-02T22:41:28.973Z,40.24
2023-02-02T22:43:41.983Z,40.41
2023-02-02T22:45:54.624Z,40.51
2023-02-02T22:48:07.677Z,40.45
2023-02-02T22:50:20.741Z,40.25
2023-02-02T22:52:33.478Z,40.51
2023-02-02T22:54:46.120Z,40.31
2023-02-02T22:56:59.562Z,40.52
2023-02-02T22:59:13.554Z,40.85
2023-02-02T23:01:26.629Z,40.57
2023-02-02T23:03:39.809Z,40.66
2023-02-02T23:05:52.739Z,40.59
2023-02-02T23:08:05.463Z,40.79
2023-02-02T23:10:21.342Z,40.75
2023-02-02T23:12:34.384Z,40.67
2023-02-02T23:14:46.953Z,40.25
2023-02-02T23:16:59.803Z,40.10
2023-02-02T23:19:13.127Z,39.99
2023-02-02T23:21:25.518Z,40.03
2023-02-02T23:23:38.420Z,39.95
2023-02-02T23:25:50.972Z,39.70
2023-02-02T23:28:04.432Z,39.81
2023-02-02T23:30:21.620Z,39.72
2023-02-02T23:32:35.405Z,39.85
2023-02-02T23:34:48.445Z,39.72
2023-02-02T23:37:01.636Z,39.87
2023-02-02T23:39:14.606Z,40.03
2023-02-02T23:41:27.127Z,40.00
2023-02-02T23:43:39.641Z,39.94
2023-02-02T23:45:52.184Z,39.92
2023-02-02T23:48:04.823Z,40.01
2023-02-02T23:50:18.234Z,40.17
2023-02-02T23:52:31.614Z,40.17
2023-02-02T23:54:45.332Z,40.13
2023-02-02T23:56:58.551Z,40.18
2023-02-02T23:59:11.974Z,40.35
